BUC41WS LROP-LBSF
Flight info
| Callsign | BUC41WS |
|---|---|
| Flight time | 0h 42m |
| Altitude | 32000 |
| Route | POLUN1K/08L POLUN DCT TIMUR/N0421F310 N181 GOL |
| Aircraft | MD82/M-SDFGIRWY/C |
Departure
| Time | 2026-05-04 21:11 |
|---|---|
| Airport | Bucharest Henri Coandă International Airport (LROP) |
Arrival
| Time | 2026-05-04 21:53 |
|---|---|
| Airport | Sofia Airport (LBSF) |
| Time | Latitude | Longitude | Altitude | Speed | Heading |
|---|---|---|---|---|---|
| 2026-05-04 20:52 | 44.56889 | 26.08721 | 304 ft | 0 kts | 174° |
| 2026-05-04 21:03 | 44.56888 | 26.08721 | 304 ft | 1 kts | 174° |
| 2026-05-04 21:03 | 44.56857 | 26.08725 | 304 ft | 6 kts | 182° |
| 2026-05-04 21:03 | 44.56836 | 26.08692 | 304 ft | 4 kts | 258° |
| 2026-05-04 21:03 | 44.56831 | 26.08658 | 305 ft | 3 kts | 263° |
| 2026-05-04 21:04 | 44.56829 | 26.08601 | 305 ft | 10 kts | 272° |
| 2026-05-04 21:04 | 44.56900 | 26.08552 | 306 ft | 13 kts | 354° |
| 2026-05-04 21:04 | 44.56985 | 26.08540 | 307 ft | 10 kts | 354° |
| 2026-05-04 21:04 | 44.57050 | 26.08531 | 308 ft | 7 kts | 354° |
| 2026-05-04 21:05 | 44.57089 | 26.08526 | 309 ft | 3 kts | 354° |
| 2026-05-04 21:05 | 44.57101 | 26.08524 | 309 ft | 0 kts | 354° |
| 2026-05-04 21:06 | 44.57120 | 26.08521 | 310 ft | 8 kts | 354° |
| 2026-05-04 21:06 | 44.57214 | 26.08508 | 311 ft | 16 kts | 354° |
| 2026-05-04 21:06 | 44.57340 | 26.08490 | 311 ft | 19 kts | 354° |
| 2026-05-04 21:06 | 44.57463 | 26.08470 | 311 ft | 16 kts | 353° |
| 2026-05-04 21:07 | 44.57516 | 26.08462 | 311 ft | 0 kts | 354° |
| 2026-05-04 21:09 | 44.57526 | 26.08460 | 311 ft | 6 kts | 354° |
| 2026-05-04 21:10 | 44.57614 | 26.08448 | 311 ft | 15 kts | 0° |
| 2026-05-04 21:10 | 44.57671 | 26.08535 | 311 ft | 12 kts | 82° |
| 2026-05-04 21:10 | 44.57695 | 26.08840 | 311 ft | 63 kts | 84° |
| 2026-05-04 21:10 | 44.57758 | 26.09711 | 315 ft | 103 kts | 84° |
| 2026-05-04 21:11 | 44.57856 | 26.10961 | 351 ft | 151 kts | 84° |
| 2026-05-04 21:11 | 44.57964 | 26.12414 | 981 ft | 151 kts | 84° |
| 2026-05-04 21:11 | 44.58075 | 26.13874 | 1584 ft | 157 kts | 82° |
| 2026-05-04 21:11 | 44.58199 | 26.15372 | 1980 ft | 164 kts | 82° |
| 2026-05-04 21:12 | 44.58331 | 26.16934 | 2572 ft | 165 kts | 81° |
| 2026-05-04 21:12 | 44.58473 | 26.18537 | 3186 ft | 166 kts | 79° |
| 2026-05-04 21:12 | 44.58358 | 26.20201 | 3526 ft | 189 kts | 111° |
| 2026-05-04 21:12 | 44.57410 | 26.21606 | 3850 ft | 212 kts | 149° |
| 2026-05-04 21:13 | 44.55989 | 26.21958 | 4326 ft | 213 kts | 186° |
| 2026-05-04 21:13 | 44.54560 | 26.21237 | 4724 ft | 224 kts | 207° |
| 2026-05-04 21:13 | 44.53243 | 26.20025 | 5236 ft | 231 kts | 221° |
| 2026-05-04 21:13 | 44.52111 | 26.18392 | 5780 ft | 235 kts | 235° |
| 2026-05-04 21:14 | 44.51250 | 26.16451 | 6317 ft | 237 kts | 249° |
| 2026-05-04 21:14 | 44.50683 | 26.14288 | 6855 ft | 239 kts | 257° |
| 2026-05-04 21:14 | 44.50164 | 26.12061 | 7390 ft | 245 kts | 256° |
| 2026-05-04 21:14 | 44.49612 | 26.09819 | 7922 ft | 250 kts | 255° |
| 2026-05-04 21:15 | 44.49015 | 26.07500 | 8462 ft | 255 kts | 253° |
| 2026-05-04 21:15 | 44.48393 | 26.05174 | 8993 ft | 259 kts | 253° |
| 2026-05-04 21:15 | 44.47742 | 26.02806 | 9529 ft | 264 kts | 252° |
| 2026-05-04 21:15 | 44.47069 | 26.00408 | 10061 ft | 268 kts | 252° |
| 2026-05-04 21:16 | 44.46375 | 25.97978 | 10593 ft | 272 kts | 252° |
| 2026-05-04 21:16 | 44.45666 | 25.95527 | 11123 ft | 275 kts | 251° |
| 2026-05-04 21:16 | 44.44943 | 25.93058 | 11646 ft | 278 kts | 251° |
| 2026-05-04 21:16 | 44.44206 | 25.90560 | 12174 ft | 281 kts | 251° |
| 2026-05-04 21:17 | 44.43449 | 25.88006 | 12702 ft | 283 kts | 250° |
| 2026-05-04 21:17 | 44.42690 | 25.85463 | 13228 ft | 285 kts | 251° |
| 2026-05-04 21:17 | 44.41919 | 25.82887 | 13752 ft | 287 kts | 250° |
| 2026-05-04 21:17 | 44.41142 | 25.80300 | 14276 ft | 289 kts | 250° |
| 2026-05-04 21:18 | 44.40374 | 25.77742 | 14807 ft | 289 kts | 250° |
| 2026-05-04 21:18 | 44.39592 | 25.75143 | 15330 ft | 290 kts | 250° |
| 2026-05-04 21:18 | 44.38805 | 25.72535 | 15859 ft | 290 kts | 250° |
| 2026-05-04 21:18 | 44.38031 | 25.69964 | 16380 ft | 290 kts | 250° |
| 2026-05-04 21:19 | 44.37255 | 25.67391 | 16902 ft | 289 kts | 250° |
| 2026-05-04 21:19 | 44.36473 | 25.64797 | 17426 ft | 288 kts | 250° |
| 2026-05-04 21:19 | 44.35708 | 25.62257 | 17940 ft | 286 kts | 250° |
| 2026-05-04 21:19 | 44.34932 | 25.59680 | 18462 ft | 283 kts | 251° |
| 2026-05-04 21:20 | 44.34174 | 25.57165 | 18983 ft | 280 kts | 250° |
| 2026-05-04 21:20 | 44.33432 | 25.54705 | 19494 ft | 276 kts | 251° |
| 2026-05-04 21:20 | 44.32692 | 25.52242 | 20010 ft | 272 kts | 251° |
| 2026-05-04 21:20 | 44.31960 | 25.49808 | 20524 ft | 268 kts | 251° |
| 2026-05-04 21:21 | 44.31242 | 25.47424 | 21036 ft | 262 kts | 251° |
| 2026-05-04 21:21 | 44.30552 | 25.45125 | 21536 ft | 256 kts | 252° |
| 2026-05-04 21:21 | 44.29879 | 25.42886 | 22033 ft | 249 kts | 252° |
| 2026-05-04 21:21 | 44.29223 | 25.40694 | 22526 ft | 241 kts | 252° |
| 2026-05-04 21:22 | 44.28587 | 25.38579 | 22995 ft | 233 kts | 253° |
| 2026-05-04 21:22 | 44.27953 | 25.36452 | 23192 ft | 237 kts | 253° |
| 2026-05-04 21:22 | 44.27314 | 25.34312 | 23412 ft | 241 kts | 252° |
| 2026-05-04 21:22 | 44.26664 | 25.32133 | 23631 ft | 245 kts | 252° |
| 2026-05-04 21:23 | 44.26004 | 25.29919 | 23856 ft | 249 kts | 252° |
| 2026-05-04 21:23 | 44.25327 | 25.27651 | 24096 ft | 253 kts | 252° |
| 2026-05-04 21:23 | 44.24653 | 25.25392 | 24332 ft | 257 kts | 252° |
| 2026-05-04 21:23 | 44.23968 | 25.23073 | 24562 ft | 262 kts | 250° |
| 2026-05-04 21:24 | 44.23055 | 25.20832 | 24809 ft | 270 kts | 238° |
| 2026-05-04 21:24 | 44.21883 | 25.18738 | 24995 ft | 280 kts | 236° |
| 2026-05-04 21:24 | 44.20627 | 25.16513 | 25045 ft | 297 kts | 235° |
| 2026-05-04 21:24 | 44.19305 | 25.14169 | 25125 ft | 314 kts | 235° |
| 2026-05-04 21:25 | 44.17940 | 25.11750 | 25205 ft | 330 kts | 235° |
| 2026-05-04 21:25 | 44.16480 | 25.09158 | 25273 ft | 347 kts | 235° |
| 2026-05-04 21:25 | 44.14949 | 25.06439 | 25349 ft | 364 kts | 235° |
| 2026-05-04 21:25 | 44.13356 | 25.03607 | 25412 ft | 381 kts | 234° |
| 2026-05-04 21:26 | 44.11689 | 25.00642 | 25474 ft | 397 kts | 234° |
| 2026-05-04 21:26 | 44.09942 | 24.97534 | 25537 ft | 413 kts | 234° |
| 2026-05-04 21:26 | 44.08160 | 24.94362 | 25767 ft | 424 kts | 234° |
| 2026-05-04 21:26 | 44.06328 | 24.91099 | 26503 ft | 423 kts | 234° |
| 2026-05-04 21:27 | 44.04516 | 24.87870 | 27026 ft | 427 kts | 234° |
| 2026-05-04 21:27 | 44.02678 | 24.84588 | 27722 ft | 426 kts | 234° |
| 2026-05-04 21:27 | 44.00874 | 24.81369 | 28035 ft | 431 kts | 234° |
| 2026-05-04 21:27 | 43.99020 | 24.78059 | 28027 ft | 433 kts | 234° |
| 2026-05-04 21:28 | 43.95370 | 24.71534 | 28021 ft | 421 kts | 234° |
| 2026-05-04 21:28 | 43.91802 | 24.65145 | 28026 ft | 418 kts | 234° |
| 2026-05-04 21:29 | 43.88249 | 24.58775 | 28032 ft | 421 kts | 234° |
| 2026-05-04 21:29 | 43.84671 | 24.52356 | 28030 ft | 421 kts | 235° |
| 2026-05-04 21:30 | 43.81103 | 24.45950 | 28023 ft | 419 kts | 235° |
| 2026-05-04 21:30 | 43.77503 | 24.39476 | 28023 ft | 420 kts | 235° |
| 2026-05-04 21:31 | 43.72163 | 24.29862 | 28036 ft | 420 kts | 234° |
| 2026-05-04 21:32 | 43.67808 | 24.24496 | 28062 ft | 426 kts | 207° |
| 2026-05-04 21:32 | 43.64971 | 24.23299 | 28050 ft | 431 kts | 190° |
| 2026-05-04 21:32 | 43.61972 | 24.23191 | 28066 ft | 434 kts | 180° |
| 2026-05-04 21:33 | 43.55901 | 24.23275 | 28040 ft | 435 kts | 181° |
| 2026-05-04 21:33 | 43.52875 | 24.23257 | 27649 ft | 436 kts | 182° |
| 2026-05-04 21:33 | 43.49830 | 24.23211 | 26999 ft | 428 kts | 182° |
| 2026-05-04 21:33 | 43.46876 | 24.23154 | 26423 ft | 425 kts | 182° |
| 2026-05-04 21:34 | 43.43935 | 24.23085 | 25831 ft | 422 kts | 182° |
| 2026-05-04 21:34 | 43.41003 | 24.23009 | 25251 ft | 418 kts | 182° |
| 2026-05-04 21:34 | 43.38119 | 24.22931 | 24680 ft | 415 kts | 182° |
| 2026-05-04 21:34 | 43.35237 | 24.22848 | 24127 ft | 411 kts | 182° |
| 2026-05-04 21:35 | 43.32407 | 24.22764 | 23591 ft | 408 kts | 182° |
| 2026-05-04 21:35 | 43.29571 | 24.22680 | 23067 ft | 405 kts | 182° |
| 2026-05-04 21:35 | 43.26809 | 24.22595 | 22566 ft | 401 kts | 181° |
| 2026-05-04 21:35 | 43.23989 | 24.22508 | 22064 ft | 397 kts | 181° |
| 2026-05-04 21:36 | 43.21205 | 24.22422 | 21563 ft | 394 kts | 181° |
| 2026-05-04 21:36 | 43.18490 | 24.22338 | 21079 ft | 390 kts | 181° |
| 2026-05-04 21:36 | 43.15822 | 24.22256 | 20609 ft | 387 kts | 181° |
| 2026-05-04 21:36 | 43.13129 | 24.22172 | 20136 ft | 383 kts | 180° |
| 2026-05-04 21:37 | 43.10509 | 24.21816 | 19669 ft | 379 kts | 196° |
| 2026-05-04 21:37 | 43.08158 | 24.20285 | 19311 ft | 373 kts | 217° |
| 2026-05-04 21:37 | 43.06343 | 24.17783 | 18830 ft | 371 kts | 237° |
| 2026-05-04 21:37 | 43.04835 | 24.14918 | 18372 ft | 373 kts | 234° |
| 2026-05-04 21:38 | 43.02961 | 24.12487 | 17849 ft | 376 kts | 212° |
| 2026-05-04 21:38 | 43.00550 | 24.11082 | 17352 ft | 375 kts | 193° |
| 2026-05-04 21:38 | 42.98032 | 24.10164 | 16842 ft | 374 kts | 194° |
| 2026-05-04 21:38 | 42.95527 | 24.09218 | 16264 ft | 375 kts | 194° |
| 2026-05-04 21:39 | 42.93050 | 24.08256 | 15736 ft | 373 kts | 194° |
| 2026-05-04 21:39 | 42.90571 | 24.07278 | 15275 ft | 370 kts | 195° |
| 2026-05-04 21:39 | 42.88282 | 24.06365 | 14791 ft | 369 kts | 195° |
| 2026-05-04 21:39 | 42.85786 | 24.05359 | 14293 ft | 366 kts | 195° |
| 2026-05-04 21:40 | 42.83311 | 24.04357 | 13792 ft | 364 kts | 195° |
| 2026-05-04 21:40 | 42.80885 | 24.03369 | 13293 ft | 363 kts | 195° |
| 2026-05-04 21:40 | 42.78519 | 24.02403 | 12896 ft | 358 kts | 195° |
| 2026-05-04 21:40 | 42.76082 | 24.01405 | 12393 ft | 357 kts | 195° |
| 2026-05-04 21:41 | 42.73729 | 24.00440 | 11647 ft | 351 kts | 194° |
| 2026-05-04 21:41 | 42.71409 | 23.99487 | 11101 ft | 343 kts | 194° |
| 2026-05-04 21:41 | 42.69145 | 23.98453 | 10591 ft | 344 kts | 205° |
| 2026-05-04 21:41 | 42.67250 | 23.96466 | 10115 ft | 343 kts | 230° |
| 2026-05-04 21:42 | 42.66090 | 23.93715 | 9816 ft | 333 kts | 254° |
| 2026-05-04 21:42 | 42.65797 | 23.90872 | 9547 ft | 321 kts | 277° |
| 2026-05-04 21:42 | 42.66152 | 23.87862 | 9310 ft | 310 kts | 282° |
| 2026-05-04 21:42 | 42.66502 | 23.84982 | 8951 ft | 306 kts | 283° |
| 2026-05-04 21:43 | 42.66849 | 23.82142 | 8601 ft | 303 kts | 283° |
| 2026-05-04 21:43 | 42.67193 | 23.79331 | 8255 ft | 300 kts | 283° |
| 2026-05-04 21:43 | 42.67534 | 23.76560 | 7959 ft | 295 kts | 282° |
| 2026-05-04 21:43 | 42.67695 | 23.73751 | 7559 ft | 296 kts | 277° |
| 2026-05-04 21:44 | 42.67823 | 23.70987 | 7175 ft | 295 kts | 277° |
| 2026-05-04 21:44 | 42.68003 | 23.68229 | 6719 ft | 296 kts | 279° |
| 2026-05-04 21:44 | 42.68038 | 23.65415 | 6144 ft | 304 kts | 262° |
| 2026-05-04 21:44 | 42.67075 | 23.62840 | 5690 ft | 310 kts | 228° |
| 2026-05-04 21:45 | 42.65301 | 23.61295 | 5324 ft | 306 kts | 197° |
| 2026-05-04 21:45 | 42.63220 | 23.61145 | 4955 ft | 295 kts | 171° |
| 2026-05-04 21:45 | 42.61190 | 23.61554 | 4658 ft | 281 kts | 170° |
| 2026-05-04 21:45 | 42.59488 | 23.62560 | 4385 ft | 261 kts | 134° |
| 2026-05-04 21:46 | 42.58644 | 23.64578 | 4280 ft | 235 kts | 96° |
| 2026-05-04 21:46 | 42.58585 | 23.66623 | 4366 ft | 207 kts | 89° |
| 2026-05-04 21:46 | 42.58739 | 23.68478 | 4183 ft | 194 kts | 61° |
| 2026-05-04 21:46 | 42.59683 | 23.69638 | 4015 ft | 181 kts | 20° |
| 2026-05-04 21:47 | 42.60867 | 23.69639 | 3932 ft | 166 kts | 338° |
| 2026-05-04 21:47 | 42.61674 | 23.68588 | 3820 ft | 155 kts | 301° |
| 2026-05-04 21:47 | 42.62238 | 23.67408 | 3715 ft | 144 kts | 304° |
| 2026-05-04 21:47 | 42.62770 | 23.66297 | 3582 ft | 136 kts | 304° |
| 2026-05-04 21:48 | 42.63266 | 23.65252 | 3447 ft | 127 kts | 304° |
| 2026-05-04 21:48 | 42.63731 | 23.64270 | 3301 ft | 119 kts | 304° |
| 2026-05-04 21:48 | 42.64180 | 23.63316 | 3207 ft | 121 kts | 303° |
| 2026-05-04 21:48 | 42.64701 | 23.62208 | 3389 ft | 152 kts | 303° |
| 2026-05-04 21:49 | 42.65263 | 23.60994 | 3873 ft | 154 kts | 304° |
| 2026-05-04 21:49 | 42.65802 | 23.59832 | 3924 ft | 145 kts | 305° |
| 2026-05-04 21:49 | 42.66357 | 23.58637 | 3795 ft | 144 kts | 304° |
| 2026-05-04 21:49 | 42.66905 | 23.57452 | 3851 ft | 150 kts | 304° |
| 2026-05-04 21:50 | 42.67479 | 23.56207 | 3868 ft | 162 kts | 304° |
| 2026-05-04 21:50 | 42.68065 | 23.54845 | 3798 ft | 169 kts | 297° |
| 2026-05-04 21:50 | 42.68513 | 23.53451 | 3616 ft | 156 kts | 292° |
| 2026-05-04 21:50 | 42.68858 | 23.52080 | 3222 ft | 154 kts | 288° |
| 2026-05-04 21:51 | 42.69091 | 23.50666 | 2772 ft | 154 kts | 280° |
| 2026-05-04 21:51 | 42.69180 | 23.49231 | 2414 ft | 149 kts | 275° |
| 2026-05-04 21:51 | 42.69289 | 23.47862 | 2175 ft | 148 kts | 276° |
| 2026-05-04 21:51 | 42.69364 | 23.46447 | 2093 ft | 152 kts | 272° |
| 2026-05-04 21:52 | 42.69453 | 23.44998 | 1951 ft | 155 kts | 274° |
| 2026-05-04 21:52 | 42.69537 | 23.43538 | 1768 ft | 154 kts | 274° |
| 2026-05-04 21:52 | 42.69619 | 23.42177 | 1743 ft | 126 kts | 274° |
| 2026-05-04 21:52 | 42.69673 | 23.41243 | 1746 ft | 75 kts | 273° |
| 2026-05-04 21:53 | 42.69709 | 23.40638 | 1748 ft | 62 kts | 275° |
| 2026-05-04 21:53 | 42.69742 | 23.40072 | 1744 ft | 57 kts | 275° |
| 2026-05-04 21:53 | 42.69758 | 23.39786 | 1744 ft | 23 kts | 275° |
| 2026-05-04 21:53 | 42.69757 | 23.39634 | 1744 ft | 6 kts | 233° |
| 2026-05-04 21:54 | 42.69733 | 23.39610 | 1744 ft | 2 kts | 202° |
| 2026-05-04 21:54 | 42.69706 | 23.39601 | 1745 ft | 5 kts | 192° |
| 2026-05-04 21:54 | 42.69641 | 23.39591 | 1746 ft | 13 kts | 186° |
| 2026-05-04 21:54 | 42.69527 | 23.39578 | 1747 ft | 16 kts | 185° |
| 2026-05-04 21:55 | 42.69429 | 23.39566 | 1749 ft | 12 kts | 185° |
| 2026-05-04 21:55 | 42.69360 | 23.39558 | 1750 ft | 8 kts | 185° |
| 2026-05-04 21:55 | 42.69318 | 23.39553 | 1752 ft | 3 kts | 185° |
| 2026-05-04 21:55 | 42.69278 | 23.39552 | 1753 ft | 9 kts | 182° |
| 2026-05-04 21:56 | 42.69195 | 23.39554 | 1755 ft | 11 kts | 156° |
| 2026-05-04 21:56 | 42.69161 | 23.39629 | 1756 ft | 8 kts | 110° |
| 2026-05-04 21:56 | 42.69149 | 23.39696 | 1756 ft | 7 kts | 86° |
| 2026-05-04 21:56 | 42.69190 | 23.39739 | 1754 ft | 8 kts | 17° |
| 2026-05-04 21:57 | 42.69200 | 23.39743 | 1754 ft | 0 kts | 17° |